createdAt,value
2022-08-26T00:00:47.418Z,10.02
2022-08-26T00:03:14.369Z,9.55
2022-08-26T00:05:41.161Z,9.48
2022-08-26T00:08:08.341Z,10.23
2022-08-26T00:10:39.842Z,10.27
2022-08-26T00:13:06.706Z,10.10
2022-08-26T00:15:35.810Z,10.05
2022-08-26T00:18:02.561Z,9.90
2022-08-26T00:20:29.306Z,10.95
2022-08-26T00:22:56.064Z,10.18
2022-08-26T00:25:22.742Z,9.35
2022-08-26T00:27:49.442Z,9.70
2022-08-26T00:30:22.726Z,10.52
2022-08-26T00:32:50.872Z,10.13
2022-08-26T00:35:18.841Z,9.75
2022-08-26T00:37:46.255Z,10.20
2022-08-26T00:40:13.634Z,10.20
2022-08-26T00:42:40.760Z,9.25
2022-08-26T00:45:12.897Z,9.15
2022-08-26T00:47:40.189Z,8.80
2022-08-26T00:50:06.909Z,9.18
2022-08-26T00:52:33.627Z,9.60
2022-08-26T00:55:00.418Z,8.75
2022-08-26T00:57:27.103Z,10.35
2022-08-26T00:59:54.426Z,10.23
2022-08-26T01:02:21.733Z,11.15
2022-08-26T01:04:48.585Z,11.30
2022-08-26T01:07:21.409Z,11.13
2022-08-26T01:09:48.272Z,11.80
2022-08-26T01:12:15.976Z,12.68
2022-08-26T01:14:48.842Z,12.38
2022-08-26T01:17:15.999Z,13.25
2022-08-26T01:19:42.728Z,14.23
2022-08-26T01:22:10.555Z,14.30
2022-08-26T01:24:38.560Z,15.10
2022-08-26T01:27:05.274Z,14.50
2022-08-26T01:29:31.994Z,13.93
2022-08-26T01:31:58.839Z,15.45
2022-08-26T01:34:25.860Z,14.85
2022-08-26T01:36:52.753Z,14.93
2022-08-26T01:39:19.788Z,12.80
2022-08-26T01:41:46.488Z,14.05
2022-08-26T01:44:13.236Z,14.65
2022-08-26T01:46:40.092Z,14.68
2022-08-26T01:49:07.140Z,14.18
2022-08-26T01:51:37.249Z,14.15
2022-08-26T01:54:04.605Z,14.27
2022-08-26T01:56:33.306Z,13.90
2022-08-26T01:59:03.318Z,12.77
2022-08-26T02:01:30.715Z,13.00
2022-08-26T02:03:57.451Z,13.23
2022-08-26T02:06:26.041Z,13.90
2022-08-26T02:08:52.707Z,13.40
2022-08-26T02:11:19.426Z,13.07
2022-08-26T02:13:46.215Z,13.85
2022-08-26T02:16:13.419Z,14.02
2022-08-26T02:18:40.181Z,12.40
2022-08-26T02:21:06.896Z,11.43
2022-08-26T02:23:33.605Z,10.48
2022-08-26T02:26:01.069Z,10.05
2022-08-26T02:28:28.216Z,10.57
2022-08-26T02:30:55.703Z,9.75
2022-08-26T02:33:22.512Z,10.05
2022-08-26T02:35:49.203Z,9.07
2022-08-26T02:38:15.961Z,9.45
2022-08-26T02:40:43.858Z,9.18
2022-08-26T02:43:12.560Z,9.48
2022-08-26T02:45:40.265Z,8.88
2022-08-26T02:48:07.147Z,9.65
2022-08-26T02:50:35.036Z,9.40
2022-08-26T02:53:01.894Z,9.52
2022-08-26T02:55:29.272Z,9.70
2022-08-26T02:57:55.998Z,9.25
2022-08-26T03:00:22.727Z,10.27
2022-08-26T03:02:50.570Z,9.27
2022-08-26T03:05:17.914Z,9.73
2022-08-26T03:07:44.608Z,9.55
2022-08-26T03:10:13.255Z,9.48
2022-08-26T03:12:41.499Z,9.55
2022-08-26T03:15:16.026Z,8.77
2022-08-26T03:17:44.508Z,9.85
2022-08-26T03:20:11.273Z,12.27
2022-08-26T03:22:40.407Z,11.57
2022-08-26T03:25:07.123Z,10.98
2022-08-26T03:27:33.829Z,12.05
2022-08-26T03:30:19.031Z,11.85
2022-08-26T03:32:46.830Z,10.45
2022-08-26T03:35:13.596Z,10.50
2022-08-26T03:37:40.617Z,10.40
2022-08-26T03:40:08.046Z,10.70
2022-08-26T03:42:35.140Z,10.90
2022-08-26T03:45:02.525Z,10.63
2022-08-26T03:47:29.211Z,10.98
2022-08-26T03:49:55.955Z,11.60
2022-08-26T03:52:22.648Z,11.40
2022-08-26T03:54:49.767Z,10.55
2022-08-26T03:57:16.746Z,11.13
2022-08-26T03:59:43.561Z,9.88
2022-08-26T04:02:11.463Z,10.48
2022-08-26T04:04:38.614Z,10.85
2022-08-26T04:07:05.329Z,9.93
2022-08-26T04:09:32.018Z,10.02
2022-08-26T04:12:02.466Z,9.82
2022-08-26T04:14:31.164Z,9.57
2022-08-26T04:16:58.948Z,9.68
2022-08-26T04:19:25.731Z,10.18
2022-08-26T04:21:55.258Z,12.05
2022-08-26T04:24:21.981Z,12.23
2022-08-26T04:26:48.674Z,12.30
2022-08-26T04:29:15.446Z,12.55
2022-08-26T04:31:42.489Z,12.77
2022-08-26T04:34:11.042Z,12.10
2022-08-26T04:36:37.925Z,11.98
2022-08-26T04:39:04.915Z,13.27
2022-08-26T04:41:31.798Z,13.93
2022-08-26T04:43:58.534Z,13.15
2022-08-26T04:46:25.578Z,12.50
2022-08-26T04:48:52.591Z,9.82
2022-08-26T04:51:19.323Z,9.93
2022-08-26T04:53:46.104Z,9.68
2022-08-26T04:56:12.783Z,9.50
2022-08-26T04:58:39.520Z,10.88
2022-08-26T05:01:06.320Z,10.95
2022-08-26T05:03:33.063Z,11.48
2022-08-26T05:05:59.798Z,12.63
2022-08-26T05:08:26.706Z,12.68
2022-08-26T05:10:57.212Z,9.30
2022-08-26T05:13:24.859Z,10.48
2022-08-26T05:15:51.592Z,11.02
2022-08-26T05:18:19.995Z,10.23
2022-08-26T05:20:47.078Z,10.10
2022-08-26T05:23:13.811Z,10.85
2022-08-26T05:25:41.966Z,10.73
2022-08-26T05:28:08.680Z,10.50
2022-08-26T05:30:35.504Z,10.93
2022-08-26T05:33:02.244Z,10.73
2022-08-26T05:35:32.107Z,11.52
2022-08-26T05:38:00.596Z,13.63
2022-08-26T05:40:27.356Z,13.95
2022-08-26T05:42:54.117Z,13.38
2022-08-26T05:45:22.283Z,14.20
2022-08-26T05:47:49.632Z,13.85
2022-08-26T05:50:21.836Z,13.50
2022-08-26T05:52:49.639Z,14.02
2022-08-26T05:55:16.325Z,12.75
2022-08-26T05:57:45.113Z,12.90
2022-08-26T06:00:12.551Z,11.77
2022-08-26T06:02:39.622Z,10.75
2022-08-26T06:05:06.437Z,11.48
2022-08-26T06:07:52.844Z,11.45
2022-08-26T06:10:32.211Z,11.80
2022-08-26T06:13:02.247Z,11.20
2022-08-26T06:15:36.269Z,10.63
2022-08-26T06:18:08.770Z,10.77
2022-08-26T06:20:36.705Z,12.68
2022-08-26T06:23:23.880Z,11.63
2022-08-26T06:25:50.663Z,11.80
2022-08-26T06:28:17.545Z,11.25
2022-08-26T06:30:44.825Z,11.90
2022-08-26T06:33:11.811Z,13.02
2022-08-26T06:35:38.567Z,12.90
2022-08-26T06:38:05.469Z,13.15
2022-08-26T06:40:32.864Z,12.40
2022-08-26T06:42:59.587Z,12.65
2022-08-26T06:45:26.384Z,12.38
2022-08-26T06:47:53.123Z,13.38
2022-08-26T06:50:19.795Z,13.05
2022-08-26T06:52:47.813Z,13.05
2022-08-26T06:55:15.216Z,12.32
2022-08-26T06:57:41.989Z,12.10
2022-08-26T07:00:11.970Z,12.23
2022-08-26T07:02:39.551Z,12.18
2022-08-26T07:05:06.480Z,12.30
2022-08-26T07:07:34.468Z,13.40
2022-08-26T07:10:01.596Z,12.43
2022-08-26T07:12:28.391Z,11.82
2022-08-26T07:14:55.252Z,11.63
2022-08-26T07:17:25.020Z,12.27
2022-08-26T07:19:51.862Z,12.10
2022-08-26T07:22:19.492Z,13.32
2022-08-26T07:24:46.258Z,14.77
2022-08-26T07:27:13.026Z,15.82
2022-08-26T07:29:39.771Z,15.52
2022-08-26T07:32:06.548Z,13.10
2022-08-26T07:34:33.491Z,14.88
2022-08-26T07:37:00.418Z,14.68
2022-08-26T07:39:27.960Z,14.20
2022-08-26T07:41:54.765Z,15.50
2022-08-26T07:44:21.534Z,16.08
2022-08-26T07:46:52.400Z,14.45
2022-08-26T07:49:20.347Z,14.05
2022-08-26T07:51:47.213Z,14.70
2022-08-26T07:54:13.980Z,14.65
2022-08-26T07:56:40.690Z,14.30
2022-08-26T07:59:13.317Z,13.40
2022-08-26T08:01:40.798Z,12.30
2022-08-26T08:04:11.408Z,12.10
2022-08-26T08:06:40.604Z,12.98
2022-08-26T08:09:07.317Z,11.45
2022-08-26T08:11:34.115Z,12.32
2022-08-26T08:14:01.811Z,12.35
2022-08-26T08:16:28.558Z,12.13
2022-08-26T08:18:59.225Z,12.50
2022-08-26T08:21:26.932Z,11.77
2022-08-26T08:23:53.720Z,8.90
2022-08-26T08:26:20.482Z,7.97
2022-08-26T08:28:47.997Z,7.60
2022-08-26T08:31:14.959Z,7.45
2022-08-26T08:33:42.045Z,7.30
2022-08-26T08:36:09.668Z,6.30
2022-08-26T08:38:45.194Z,6.68
2022-08-26T08:41:11.949Z,5.82
2022-08-26T08:43:39.783Z,5.50
2022-08-26T08:46:06.604Z,5.80
2022-08-26T08:48:33.347Z,4.65
2022-08-26T08:51:00.093Z,4.50
2022-08-26T08:53:26.812Z,5.10
2022-08-26T08:55:54.053Z,4.30
2022-08-26T08:58:20.770Z,4.00
2022-08-26T09:00:47.587Z,3.13
2022-08-26T09:03:14.291Z,2.50
2022-08-26T09:05:45.470Z,2.67
2022-08-26T09:08:15.338Z,4.38
2022-08-26T09:10:42.123Z,3.13
2022-08-26T09:13:09.479Z,3.28
2022-08-26T09:15:40.627Z,3.35
2022-08-26T09:18:08.382Z,3.53
2022-08-26T09:20:37.631Z,3.10
2022-08-26T09:23:06.000Z,3.22
2022-08-26T09:25:34.768Z,2.80
2022-08-26T09:28:01.532Z,3.10
2022-08-26T09:30:30.523Z,2.67
2022-08-26T09:32:57.637Z,3.20
2022-08-26T09:35:25.708Z,3.30
2022-08-26T09:37:53.042Z,3.15
2022-08-26T09:40:20.401Z,3.03
2022-08-26T09:42:48.201Z,3.40
2022-08-26T09:45:15.548Z,3.03
2022-08-26T09:47:44.127Z,3.20
2022-08-26T09:50:12.457Z,3.10
2022-08-26T09:52:40.369Z,3.40
2022-08-26T09:55:09.394Z,3.38
2022-08-26T09:57:36.176Z,3.55
2022-08-26T10:00:03.849Z,3.22
2022-08-26T10:02:38.550Z,3.90
2022-08-26T10:05:09.422Z,3.15
2022-08-26T10:07:36.484Z,2.65
2022-08-26T10:10:04.368Z,2.67
2022-08-26T10:12:31.292Z,2.75
2022-08-26T10:14:58.017Z,3.10
2022-08-26T10:17:24.733Z,3.08
2022-08-26T10:19:56.626Z,2.65
2022-08-26T10:22:24.389Z,2.72
2022-08-26T10:24:54.914Z,2.60
2022-08-26T10:27:21.945Z,2.25
2022-08-26T10:29:48.654Z,2.78
2022-08-26T10:32:15.439Z,2.63
2022-08-26T10:34:42.590Z,2.83
2022-08-26T10:37:14.242Z,3.15
2022-08-26T10:39:43.155Z,2.70
2022-08-26T10:42:09.865Z,2.88
2022-08-26T10:44:38.243Z,2.42
2022-08-26T10:47:07.851Z,2.17
2022-08-26T10:49:35.222Z,2.25
2022-08-26T10:52:02.745Z,2.58
2022-08-26T10:54:29.484Z,2.45
2022-08-26T10:56:56.428Z,2.58
2022-08-26T10:59:23.596Z,2.38
2022-08-26T11:01:52.546Z,2.13
2022-08-26T11:04:19.486Z,2.50
2022-08-26T11:06:49.202Z,2.95
2022-08-26T11:09:16.116Z,2.70
2022-08-26T11:11:45.331Z,2.70
2022-08-26T11:14:13.812Z,2.47
2022-08-26T11:16:43.413Z,2.25
2022-08-26T11:19:10.569Z,2.53
2022-08-26T11:21:37.305Z,2.65
2022-08-26T11:24:04.074Z,2.83
2022-08-26T11:26:36.247Z,2.65
2022-08-26T11:29:18.653Z,2.20
2022-08-26T11:31:46.834Z,2.70
2022-08-26T11:34:13.567Z,2.97
2022-08-26T11:36:40.317Z,2.40
2022-08-26T11:39:07.076Z,2.30
2022-08-26T11:41:34.029Z,2.08
2022-08-26T11:44:02.366Z,1.88
2022-08-26T11:46:30.404Z,2.40
2022-08-26T11:48:57.115Z,2.35
2022-08-26T11:51:23.828Z,2.53
2022-08-26T11:53:51.202Z,2.20
2022-08-26T11:56:17.952Z,2.15
2022-08-26T11:58:48.171Z,2.10
2022-08-26T12:01:14.894Z,2.60
2022-08-26T12:03:43.849Z,2.17
2022-08-26T12:06:11.495Z,2.30
2022-08-26T12:08:42.963Z,2.40
2022-08-26T12:11:09.804Z,2.20
2022-08-26T12:13:39.022Z,2.00
2022-08-26T12:16:05.828Z,2.35
2022-08-26T12:18:32.859Z,2.45
2022-08-26T12:21:00.556Z,2.53
2022-08-26T12:23:27.375Z,2.50
2022-08-26T12:25:54.110Z,2.45
2022-08-26T12:28:21.591Z,2.13
2022-08-26T12:30:49.954Z,2.42
2022-08-26T12:33:21.960Z,2.33
2022-08-26T12:35:51.463Z,2.05
2022-08-26T12:38:21.481Z,2.22
2022-08-26T12:40:50.316Z,2.17
2022-08-26T12:43:17.267Z,2.00
2022-08-26T12:45:46.492Z,2.10
2022-08-26T12:48:13.733Z,2.17
2022-08-26T12:50:40.590Z,1.65
2022-08-26T12:53:07.516Z,2.10
2022-08-26T12:55:35.682Z,2.30
2022-08-26T12:58:02.528Z,1.77
2022-08-26T13:00:29.350Z,2.22
2022-08-26T13:02:56.287Z,2.20
2022-08-26T13:05:23.156Z,1.90
2022-08-26T13:07:49.931Z,1.70
2022-08-26T13:10:16.818Z,2.28
2022-08-26T13:12:43.570Z,2.05
2022-08-26T13:15:10.475Z,1.80
2022-08-26T13:17:37.810Z,1.80
2022-08-26T13:20:04.869Z,2.17
2022-08-26T13:22:31.719Z,1.80
2022-08-26T13:24:58.558Z,1.70
2022-08-26T13:27:26.286Z,1.67
2022-08-26T13:29:53.173Z,2.08
2022-08-26T13:32:22.527Z,2.10
2022-08-26T13:34:54.310Z,1.85
2022-08-26T13:37:34.575Z,1.80
2022-08-26T13:40:02.814Z,1.80
2022-08-26T13:42:29.828Z,1.77
2022-08-26T13:44:58.971Z,1.70
2022-08-26T13:47:26.470Z,2.08
2022-08-26T13:49:54.519Z,1.95
2022-08-26T13:52:30.805Z,2.35
2022-08-26T13:54:58.006Z,2.28
2022-08-26T13:57:27.909Z,2.42
2022-08-26T13:59:56.562Z,2.05
2022-08-26T14:02:24.598Z,2.40
2022-08-26T14:04:51.797Z,2.10
2022-08-26T14:07:18.570Z,2.00
2022-08-26T14:09:45.501Z,1.90
2022-08-26T14:12:12.338Z,2.08
2022-08-26T14:14:39.163Z,1.98
2022-08-26T14:17:05.933Z,1.88
2022-08-26T14:19:32.705Z,1.95
2022-08-26T14:22:00.803Z,2.00
2022-08-26T14:24:28.193Z,2.10
2022-08-26T14:26:55.014Z,2.25
2022-08-26T14:29:21.779Z,2.00
2022-08-26T14:31:48.551Z,1.98
2022-08-26T14:34:15.358Z,2.47
2022-08-26T14:36:42.512Z,1.80
2022-08-26T14:39:09.294Z,2.33
2022-08-26T14:41:36.330Z,1.92
2022-08-26T14:44:03.192Z,2.50
2022-08-26T14:46:30.329Z,2.45
2022-08-26T14:48:57.233Z,2.25
2022-08-26T14:51:28.819Z,2.40
2022-08-26T14:54:14.109Z,2.45
2022-08-26T14:56:40.885Z,2.20
2022-08-26T14:59:07.675Z,2.20
2022-08-26T15:01:34.518Z,2.10
2022-08-26T15:04:01.410Z,2.42
2022-08-26T15:06:28.186Z,1.75
2022-08-26T15:08:55.417Z,2.38
2022-08-26T15:11:22.506Z,2.28
2022-08-26T15:13:49.293Z,2.20
2022-08-26T15:16:16.111Z,2.17
2022-08-26T15:18:42.927Z,2.15
2022-08-26T15:21:09.687Z,2.10
2022-08-26T15:23:39.502Z,1.80
2022-08-26T15:26:06.581Z,2.28
2022-08-26T15:28:33.328Z,2.15
2022-08-26T15:31:00.623Z,1.70
2022-08-26T15:33:27.521Z,2.00
2022-08-26T15:35:54.300Z,2.20
2022-08-26T15:38:21.074Z,1.83
2022-08-26T15:40:47.829Z,1.70
2022-08-26T15:43:27.827Z,2.00
2022-08-26T15:45:55.119Z,2.28
2022-08-26T15:48:21.849Z,2.10
2022-08-26T15:50:48.625Z,2.30
2022-08-26T15:53:15.541Z,2.50
2022-08-26T15:55:42.321Z,2.00
2022-08-26T15:58:10.398Z,2.30
2022-08-26T16:00:37.114Z,2.00
2022-08-26T16:03:04.112Z,1.90
2022-08-26T16:05:30.951Z,2.22
2022-08-26T16:07:57.881Z,2.08
2022-08-26T16:10:24.847Z,1.67
2022-08-26T16:12:51.594Z,1.85
2022-08-26T16:15:18.451Z,2.30
2022-08-26T16:17:45.243Z,2.30
2022-08-26T16:20:12.087Z,2.03
2022-08-26T16:22:38.859Z,2.03
2022-08-26T16:25:07.394Z,1.80
2022-08-26T16:27:34.232Z,2.03
2022-08-26T16:30:01.111Z,1.95
2022-08-26T16:32:31.133Z,2.05
2022-08-26T16:34:58.135Z,2.03
2022-08-26T16:37:24.900Z,2.00
2022-08-26T16:39:51.739Z,2.20
2022-08-26T16:42:18.596Z,2.75
2022-08-26T16:44:45.447Z,2.00
2022-08-26T16:47:12.360Z,2.13
2022-08-26T16:49:39.341Z,2.10
2022-08-26T16:52:06.127Z,1.90
2022-08-26T16:54:32.931Z,2.00
2022-08-26T16:56:59.702Z,1.75
2022-08-26T16:59:26.433Z,2.22
2022-08-26T17:01:53.316Z,1.90
2022-08-26T17:04:20.378Z,1.80
2022-08-26T17:06:47.151Z,1.77
2022-08-26T17:09:13.916Z,2.15
2022-08-26T17:11:40.654Z,2.08
2022-08-26T17:14:07.718Z,1.88
2022-08-26T17:16:34.548Z,2.70
2022-08-26T17:19:01.422Z,2.17
2022-08-26T17:21:28.176Z,2.30
2022-08-26T17:23:54.980Z,2.10
2022-08-26T17:26:21.711Z,2.35
2022-08-26T17:28:48.533Z,2.17
2022-08-26T17:31:15.286Z,1.95
2022-08-26T17:33:42.056Z,1.92
2022-08-26T17:36:08.836Z,1.67
2022-08-26T17:38:35.561Z,2.20
2022-08-26T17:41:02.751Z,1.73
2022-08-26T17:43:29.593Z,1.55
2022-08-26T17:45:56.335Z,1.75
2022-08-26T17:48:23.370Z,1.70
2022-08-26T17:50:50.112Z,1.95
2022-08-26T17:53:18.680Z,2.28
2022-08-26T17:55:46.023Z,1.90
2022-08-26T17:58:14.587Z,2.10
2022-08-26T18:00:41.608Z,2.00
2022-08-26T18:03:08.562Z,1.70
2022-08-26T18:05:35.722Z,2.20
2022-08-26T18:08:02.476Z,2.78
2022-08-26T18:10:29.237Z,2.72
2022-08-26T18:12:56.030Z,2.45
2022-08-26T18:15:22.718Z,2.55
2022-08-26T18:17:49.532Z,2.58
2022-08-26T18:20:16.294Z,2.20
2022-08-26T18:22:42.999Z,2.35
2022-08-26T18:25:09.771Z,2.47
2022-08-26T18:27:36.640Z,1.92
2022-08-26T18:30:03.430Z,2.65
2022-08-26T18:32:30.230Z,2.22
2022-08-26T18:34:56.904Z,2.15
2022-08-26T18:37:25.768Z,2.75
2022-08-26T18:39:54.752Z,2.38
2022-08-26T18:42:21.483Z,2.40
2022-08-26T18:44:48.515Z,2.65
2022-08-26T18:47:15.389Z,3.10
2022-08-26T18:49:42.109Z,2.95
2022-08-26T18:52:09.143Z,2.88
2022-08-26T18:54:35.900Z,2.60
2022-08-26T18:57:03.415Z,3.20
2022-08-26T18:59:30.639Z,3.75
2022-08-26T19:01:57.605Z,3.80
2022-08-26T19:04:24.518Z,4.60
2022-08-26T19:06:51.224Z,4.28
2022-08-26T19:09:18.201Z,5.25
2022-08-26T19:11:45.344Z,5.60
2022-08-26T19:14:13.623Z,5.45
2022-08-26T19:16:40.459Z,4.70
2022-08-26T19:19:07.205Z,3.33
2022-08-26T19:21:33.978Z,3.60
2022-08-26T19:24:01.029Z,3.22
2022-08-26T19:26:27.771Z,3.25
2022-08-26T19:28:54.491Z,3.60
2022-08-26T19:31:21.266Z,3.40
2022-08-26T19:33:48.037Z,2.88
2022-08-26T19:36:15.192Z,2.95
2022-08-26T19:38:42.907Z,2.83
2022-08-26T19:41:09.647Z,2.80
2022-08-26T19:43:36.335Z,3.03
2022-08-26T19:46:04.163Z,3.15
2022-08-26T19:48:30.919Z,3.38
2022-08-26T19:50:57.677Z,3.35
2022-08-26T19:53:24.594Z,3.20
2022-08-26T19:55:51.562Z,3.08
2022-08-26T19:58:18.319Z,3.00
2022-08-26T20:00:45.309Z,3.10
2022-08-26T20:03:14.866Z,3.33
2022-08-26T20:05:43.182Z,3.13
2022-08-26T20:08:16.798Z,3.38
2022-08-26T20:10:49.784Z,2.85
2022-08-26T20:13:16.575Z,3.38
2022-08-26T20:15:43.286Z,3.25
2022-08-26T20:18:29.970Z,2.65
2022-08-26T20:21:15.511Z,2.90
2022-08-26T20:23:43.735Z,3.35
2022-08-26T20:26:10.464Z,2.88
2022-08-26T20:28:37.330Z,3.55
2022-08-26T20:31:04.116Z,3.10
2022-08-26T20:33:30.923Z,3.33
2022-08-26T20:36:12.842Z,3.17
2022-08-26T20:38:39.585Z,2.83
2022-08-26T20:41:06.365Z,3.38
2022-08-26T20:43:33.141Z,2.83
2022-08-26T20:45:59.979Z,3.33
2022-08-26T20:48:26.812Z,3.17
2022-08-26T20:50:53.563Z,2.95
2022-08-26T20:53:20.324Z,3.45
2022-08-26T20:55:53.743Z,3.00
2022-08-26T20:58:20.604Z,3.28
2022-08-26T21:00:47.397Z,3.13
2022-08-26T21:03:14.461Z,3.63
2022-08-26T21:05:41.246Z,3.45
2022-08-26T21:08:07.999Z,3.10
2022-08-26T21:10:35.911Z,3.33
2022-08-26T21:13:02.673Z,3.78
2022-08-26T21:15:29.737Z,3.40
2022-08-26T21:17:58.168Z,3.05
2022-08-26T21:20:25.059Z,3.17
2022-08-26T21:22:51.885Z,3.40
2022-08-26T21:25:18.617Z,3.40
2022-08-26T21:27:45.472Z,3.67
2022-08-26T21:30:12.219Z,3.65
2022-08-26T21:32:39.030Z,3.97
2022-08-26T21:35:05.832Z,4.95
2022-08-26T21:37:32.580Z,7.25
2022-08-26T21:39:59.386Z,6.40
2022-08-26T21:42:26.619Z,5.45
2022-08-26T21:44:53.514Z,5.32
2022-08-26T21:47:20.316Z,4.90
2022-08-26T21:49:47.083Z,4.10
2022-08-26T21:52:13.834Z,4.20
2022-08-26T21:54:40.615Z,3.83
2022-08-26T21:57:16.221Z,4.22
2022-08-26T21:59:43.008Z,10.23
2022-08-26T22:02:11.200Z,17.17
2022-08-26T22:04:38.080Z,15.75
2022-08-26T22:07:05.061Z,15.48
2022-08-26T22:09:31.865Z,8.55
2022-08-26T22:11:58.681Z,6.90
2022-08-26T22:14:30.690Z,5.40
2022-08-26T22:16:57.885Z,4.25
2022-08-26T22:19:24.749Z,6.10
2022-08-26T22:21:51.945Z,5.10
2022-08-26T22:24:18.789Z,5.70
2022-08-26T22:26:45.565Z,6.43
2022-08-26T22:29:12.401Z,5.18
2022-08-26T22:31:39.623Z,5.32
2022-08-26T22:34:06.640Z,5.03
2022-08-26T22:36:33.535Z,4.50
2022-08-26T22:39:00.730Z,4.25
2022-08-26T22:41:27.880Z,4.10
2022-08-26T22:43:54.662Z,4.10
2022-08-26T22:46:21.366Z,3.92
2022-08-26T22:48:53.669Z,4.40
2022-08-26T22:51:20.715Z,4.00
2022-08-26T22:53:47.484Z,4.28
2022-08-26T22:56:14.516Z,4.13
2022-08-26T22:58:41.276Z,4.20
2022-08-26T23:01:08.159Z,3.80
2022-08-26T23:03:35.004Z,4.82
2022-08-26T23:06:03.473Z,3.53
2022-08-26T23:08:30.275Z,3.78
2022-08-26T23:10:57.020Z,3.80
2022-08-26T23:13:23.814Z,3.45
2022-08-26T23:15:50.597Z,3.80
2022-08-26T23:18:17.338Z,4.00
2022-08-26T23:20:44.171Z,4.00
2022-08-26T23:23:10.915Z,3.60
2022-08-26T23:25:37.678Z,3.47
2022-08-26T23:28:04.494Z,3.75
2022-08-26T23:30:31.232Z,3.90
2022-08-26T23:32:57.967Z,4.43
2022-08-26T23:35:24.752Z,3.40
2022-08-26T23:37:53.105Z,3.80
2022-08-26T23:40:19.982Z,4.15
2022-08-26T23:42:46.804Z,3.88
2022-08-26T23:45:13.569Z,3.92
2022-08-26T23:47:41.227Z,3.35
2022-08-26T23:50:07.986Z,3.72
2022-08-26T23:52:53.558Z,3.88
2022-08-26T23:57:47.078Z,3.63
